createdAt,value
2023-04-08T00:01:47.352Z,13.97
2023-04-08T00:04:14.543Z,14.53
2023-04-08T00:06:40.941Z,12.77
2023-04-08T00:09:07.190Z,14.87
2023-04-08T00:11:33.507Z,12.93
2023-04-08T00:14:00.255Z,17.83
2023-04-08T00:16:26.544Z,17.97
2023-04-08T00:18:52.927Z,17.80
2023-04-08T00:21:20.821Z,19.23
2023-04-08T00:23:47.423Z,23.03
2023-04-08T00:26:13.674Z,18.07
2023-04-08T00:28:39.957Z,19.30
2023-04-08T00:31:06.293Z,22.70
2023-04-08T00:33:33.695Z,19.63
2023-04-08T00:36:00.015Z,20.53
2023-04-08T00:38:26.576Z,19.13
2023-04-08T00:40:52.841Z,24.13
2023-04-08T00:43:21.215Z,22.63
2023-04-08T00:45:47.957Z,26.73
2023-04-08T00:48:14.232Z,25.10
2023-04-08T00:50:40.611Z,30.33
2023-04-08T00:53:06.856Z,27.37
2023-04-08T00:55:33.104Z,30.80
2023-04-08T00:57:59.385Z,27.40
2023-04-08T01:00:26.221Z,26.17
2023-04-08T01:03:01.976Z,24.83
2023-04-08T01:05:47.383Z,29.93
2023-04-08T01:08:14.437Z,29.47
2023-04-08T01:10:42.979Z,29.03
2023-04-08T01:13:11.882Z,31.90
2023-04-08T01:15:42.312Z,26.53
2023-04-08T01:18:10.540Z,28.97
2023-04-08T01:20:37.094Z,27.40
2023-04-08T01:23:08.344Z,28.60
2023-04-08T01:25:35.683Z,30.93
2023-04-08T01:28:05.255Z,33.77
2023-04-08T01:30:32.442Z,33.27
2023-04-08T01:32:59.518Z,35.73
2023-04-08T01:35:26.118Z,34.00
2023-04-08T01:37:53.839Z,29.00
2023-04-08T01:40:20.356Z,33.70
2023-04-08T01:42:51.296Z,35.10
2023-04-08T01:45:18.327Z,39.60
2023-04-08T01:47:49.390Z,35.90
2023-04-08T01:50:16.506Z,34.00
2023-04-08T01:52:47.554Z,33.93
2023-04-08T01:55:13.882Z,37.07
2023-04-08T01:57:41.634Z,38.20
2023-04-08T02:00:10.138Z,37.13
2023-04-08T02:02:37.024Z,37.13
2023-04-08T02:05:03.613Z,35.60
2023-04-08T02:07:29.844Z,42.27
2023-04-08T02:09:56.387Z,32.70
2023-04-08T02:12:22.909Z,39.77
2023-04-08T02:14:49.441Z,36.07
2023-04-08T02:17:21.148Z,35.20
2023-04-08T02:20:06.509Z,39.03
2023-04-08T02:22:41.760Z,38.60
2023-04-08T02:25:08.707Z,35.90
2023-04-08T02:27:35.920Z,35.30
2023-04-08T02:30:04.408Z,38.00
2023-04-08T02:32:31.334Z,42.37
2023-04-08T02:34:59.524Z,37.87
2023-04-08T02:37:25.941Z,36.47
2023-04-08T02:39:52.247Z,38.73
2023-04-08T02:42:18.567Z,39.20
2023-04-08T02:44:44.907Z,37.50
2023-04-08T02:47:11.147Z,36.33
2023-04-08T02:49:37.384Z,37.53
2023-04-08T02:52:04.181Z,42.93
2023-04-08T02:54:30.632Z,37.00
2023-04-08T02:56:56.896Z,38.87
2023-04-08T02:59:23.269Z,40.50
2023-04-08T03:01:49.614Z,39.03
2023-04-08T03:04:15.897Z,41.73
2023-04-08T03:06:42.167Z,40.90
2023-04-08T03:09:08.447Z,35.60
2023-04-08T03:11:34.729Z,44.87
2023-04-08T03:14:01.196Z,37.40
2023-04-08T03:16:27.547Z,39.13
2023-04-08T03:18:54.596Z,40.17
2023-04-08T03:21:20.955Z,38.33
2023-04-08T03:23:47.227Z,42.70
2023-04-08T03:26:13.533Z,41.07
2023-04-08T03:28:39.799Z,38.60
2023-04-08T03:31:06.361Z,40.63
2023-04-08T03:33:32.778Z,39.57
2023-04-08T03:35:59.048Z,38.97
2023-04-08T03:38:25.338Z,39.23
2023-04-08T03:40:51.638Z,45.90
2023-04-08T03:43:19.585Z,39.27
2023-04-08T03:45:45.825Z,37.53
2023-04-08T03:48:12.074Z,41.17
2023-04-08T03:50:38.529Z,44.27
2023-04-08T03:53:04.864Z,40.83
2023-04-08T03:55:31.114Z,45.73
2023-04-08T03:57:57.352Z,41.90
2023-04-08T04:00:23.827Z,41.60
2023-04-08T04:02:50.264Z,39.10
2023-04-08T04:05:16.625Z,45.27
2023-04-08T04:07:42.884Z,41.47
2023-04-08T04:10:10.360Z,45.53
2023-04-08T04:12:36.636Z,43.23
2023-04-08T04:15:03.122Z,45.60
2023-04-08T04:17:29.401Z,45.60
2023-04-08T04:19:55.681Z,39.43
2023-04-08T04:22:21.944Z,45.40
2023-04-08T04:24:48.637Z,43.10
2023-04-08T04:27:15.436Z,43.43
2023-04-08T04:29:42.050Z,40.27
2023-04-08T04:32:08.657Z,50.93
2023-04-08T04:34:34.900Z,45.27
2023-04-08T04:37:01.132Z,41.90
2023-04-08T04:39:27.364Z,42.57
2023-04-08T04:41:53.598Z,47.20
2023-04-08T04:44:19.892Z,42.60
2023-04-08T04:46:46.196Z,50.50
2023-04-08T04:49:12.711Z,44.10
2023-04-08T04:51:38.983Z,42.10
2023-04-08T04:54:05.404Z,42.53
2023-04-08T04:56:31.672Z,43.20
2023-04-08T04:58:58.013Z,46.07
2023-04-08T05:01:24.407Z,43.13
2023-04-08T05:03:50.918Z,45.57
2023-04-08T05:06:17.188Z,44.63
2023-04-08T05:08:43.470Z,44.40
2023-04-08T05:11:10.349Z,42.83
2023-04-08T05:13:36.596Z,44.20
2023-04-08T05:16:02.850Z,40.43
2023-04-08T05:18:29.121Z,40.53
2023-04-08T05:20:55.489Z,43.33
2023-04-08T05:23:21.724Z,46.33
2023-04-08T05:25:47.964Z,44.57
2023-04-08T05:28:14.198Z,42.60
2023-04-08T05:30:40.790Z,46.73
2023-04-08T05:33:07.099Z,43.53
2023-04-08T05:35:33.517Z,49.90
2023-04-08T05:37:59.743Z,43.63
2023-04-08T05:40:27.187Z,48.10
2023-04-08T05:42:53.442Z,48.87
2023-04-08T05:45:19.691Z,45.43
2023-04-08T05:47:46.046Z,50.07
2023-04-08T05:50:12.412Z,46.40
2023-04-08T05:52:42.700Z,46.13
2023-04-08T05:55:09.076Z,48.57
2023-04-08T05:57:35.313Z,45.67
2023-04-08T06:00:01.665Z,45.00
2023-04-08T06:02:28.395Z,43.40
2023-04-08T06:04:54.877Z,49.07
2023-04-08T06:07:21.210Z,45.43
2023-04-08T06:09:47.448Z,49.80
2023-04-08T06:12:13.762Z,47.20
2023-04-08T06:14:40.435Z,51.77
2023-04-08T06:17:06.697Z,45.07
2023-04-08T06:19:33.041Z,47.67
2023-04-08T06:21:59.359Z,50.10
2023-04-08T06:24:27.323Z,49.83
2023-04-08T06:26:53.712Z,52.47
2023-04-08T06:29:21.053Z,47.83
2023-04-08T06:31:47.525Z,50.47
2023-04-08T06:34:13.801Z,51.17
2023-04-08T06:36:40.085Z,51.73
2023-04-08T06:39:06.649Z,46.50
2023-04-08T06:41:32.925Z,49.03
2023-04-08T06:43:59.213Z,48.77
2023-04-08T06:46:25.701Z,45.97
2023-04-08T06:48:52.277Z,48.83
2023-04-08T06:51:18.766Z,50.43
2023-04-08T06:53:45.099Z,55.33
2023-04-08T06:56:11.429Z,50.67
2023-04-08T06:58:37.746Z,48.90
2023-04-08T07:01:04.033Z,45.10
2023-04-08T07:03:30.753Z,49.00
2023-04-08T07:05:57.101Z,48.63
2023-04-08T07:08:23.386Z,53.30
2023-04-08T07:10:49.781Z,46.93
2023-04-08T07:13:17.430Z,53.27
2023-04-08T07:15:43.744Z,49.80
2023-04-08T07:18:10.575Z,55.00
2023-04-08T07:20:38.432Z,49.90
2023-04-08T07:23:05.112Z,50.37
2023-04-08T07:25:33.210Z,49.50
2023-04-08T07:27:59.463Z,54.70
2023-04-08T07:30:25.763Z,49.87
2023-04-08T07:32:52.477Z,49.50
2023-04-08T07:35:24.230Z,43.17
2023-04-08T07:37:51.358Z,45.27
2023-04-08T07:40:17.652Z,46.47
2023-04-08T07:42:43.908Z,48.73
2023-04-08T07:45:10.444Z,46.17
2023-04-08T07:47:36.893Z,48.03
2023-04-08T07:50:03.931Z,44.40
2023-04-08T07:52:30.602Z,46.63
2023-04-08T07:54:56.884Z,41.23
2023-04-08T07:57:23.384Z,44.77
2023-04-08T07:59:49.756Z,43.17
2023-04-08T08:02:16.084Z,43.93
2023-04-08T08:04:42.492Z,44.50
2023-04-08T08:07:08.782Z,38.37
2023-04-08T08:09:35.237Z,43.77
2023-04-08T08:12:01.501Z,41.77
2023-04-08T08:14:27.853Z,46.90
2023-04-08T08:16:54.355Z,41.80
2023-04-08T08:19:20.929Z,46.77
2023-04-08T08:21:47.225Z,47.57
2023-04-08T08:24:13.533Z,41.37
2023-04-08T08:26:40.517Z,42.23
2023-04-08T08:29:08.618Z,40.27
2023-04-08T08:31:35.338Z,41.07
2023-04-08T08:34:01.745Z,40.10
2023-04-08T08:36:28.081Z,42.43
2023-04-08T08:38:54.380Z,39.63
2023-04-08T08:41:21.170Z,40.97
2023-04-08T08:43:47.470Z,44.10
2023-04-08T08:46:16.026Z,39.53
2023-04-08T08:48:42.393Z,44.07
2023-04-08T08:51:12.056Z,42.77
2023-04-08T08:53:38.659Z,46.53
2023-04-08T08:56:17.696Z,40.10
2023-04-08T08:58:44.480Z,41.33
2023-04-08T09:01:29.491Z,43.50
2023-04-08T09:04:16.973Z,44.20
2023-04-08T09:06:44.459Z,40.50
2023-04-08T09:09:10.817Z,39.17
2023-04-08T09:11:38.562Z,36.97
2023-04-08T09:14:06.130Z,38.17
2023-04-08T09:16:32.903Z,39.37
2023-04-08T09:19:17.472Z,40.10
2023-04-08T09:21:43.814Z,41.20
2023-04-08T09:24:26.670Z,38.70
2023-04-08T09:26:52.897Z,38.43
2023-04-08T09:31:55.986Z,41.03
2023-04-08T09:34:23.410Z,40.17
2023-04-08T09:36:50.436Z,38.57
2023-04-08T09:39:16.725Z,37.13
2023-04-08T09:41:43.392Z,39.60
2023-04-08T09:44:12.801Z,37.40
2023-04-08T09:46:54.423Z,41.30
2023-04-08T09:49:34.205Z,39.70
2023-04-08T09:52:21.273Z,37.03
2023-04-08T09:54:47.534Z,40.27
2023-04-08T09:57:16.328Z,36.57
2023-04-08T09:59:45.889Z,33.10
2023-04-08T10:02:16.869Z,35.27
2023-04-08T10:04:43.848Z,37.37
2023-04-08T10:07:10.194Z,35.73
2023-04-08T10:09:38.594Z,32.97
2023-04-08T10:12:05.274Z,34.77
2023-04-08T10:14:32.556Z,34.10
2023-04-08T10:17:26.205Z,35.20
2023-04-08T10:19:52.568Z,33.77
2023-04-08T10:22:33.858Z,32.70
2023-04-08T10:25:15.505Z,30.57
2023-04-08T10:27:42.182Z,34.57
2023-04-08T10:30:27.292Z,34.10
2023-04-08T10:32:57.467Z,33.97
2023-04-08T10:35:35.625Z,33.50
2023-04-08T10:38:02.242Z,34.03
2023-04-08T10:40:28.520Z,35.50
2023-04-08T10:42:55.602Z,33.20
2023-04-08T10:45:22.174Z,32.93
2023-04-08T10:47:48.548Z,30.07
2023-04-08T10:50:15.888Z,34.97
2023-04-08T10:52:48.863Z,33.60
2023-04-08T10:55:16.551Z,32.37
2023-04-08T10:57:42.769Z,28.47
2023-04-08T11:00:12.338Z,30.30
2023-04-08T11:02:38.752Z,31.90
2023-04-08T11:05:05.289Z,28.83
2023-04-08T11:07:31.593Z,28.70
2023-04-08T11:09:57.845Z,28.87
2023-04-08T11:12:24.069Z,28.27
2023-04-08T11:14:52.539Z,31.37
2023-04-08T11:17:18.866Z,30.50
2023-04-08T11:19:46.178Z,32.33
2023-04-08T11:22:12.801Z,30.33
2023-04-08T11:24:39.431Z,26.70
2023-04-08T11:27:08.833Z,28.00
2023-04-08T11:29:36.024Z,27.10
2023-04-08T11:32:02.325Z,25.77
2023-04-08T11:34:28.712Z,25.73
2023-04-08T11:36:56.754Z,27.67
2023-04-08T11:39:23.588Z,27.73
2023-04-08T11:41:50.070Z,28.40
2023-04-08T11:44:16.396Z,26.53
2023-04-08T11:46:52.122Z,26.33
2023-04-08T11:49:18.531Z,32.30
2023-04-08T11:51:55.541Z,27.93
2023-04-08T11:54:32.342Z,26.00
2023-04-08T11:56:59.183Z,28.53
2023-04-08T11:59:28.219Z,28.20
2023-04-08T12:01:55.565Z,26.97
2023-04-08T12:04:22.064Z,28.43
2023-04-08T12:06:48.418Z,27.33
2023-04-08T12:09:14.651Z,24.53
2023-04-08T12:11:41.221Z,26.60
2023-04-08T12:14:07.495Z,23.37
2023-04-08T12:16:33.819Z,23.27
2023-04-08T12:19:00.285Z,24.03
2023-04-08T12:21:27.835Z,24.87
2023-04-08T12:23:54.211Z,25.00
2023-04-08T12:26:20.423Z,24.90
2023-04-08T12:28:46.925Z,24.67
2023-04-08T12:31:13.236Z,21.90
2023-04-08T12:33:39.488Z,23.40
2023-04-08T12:36:05.872Z,21.67
2023-04-08T12:38:33.447Z,23.57
2023-04-08T12:40:59.771Z,24.77
2023-04-08T12:43:26.045Z,20.70
2023-04-08T12:45:52.325Z,19.60
2023-04-08T12:48:18.584Z,22.90
2023-04-08T12:50:44.902Z,21.03
2023-04-08T12:53:11.291Z,18.97
2023-04-08T12:55:37.602Z,19.77
2023-04-08T12:58:03.943Z,22.70
2023-04-08T13:00:30.332Z,18.87
2023-04-08T13:02:56.702Z,18.50
2023-04-08T13:05:32.837Z,16.97
2023-04-08T13:08:08.836Z,17.53
2023-04-08T13:10:35.280Z,16.20
2023-04-08T13:13:01.608Z,18.17
2023-04-08T13:15:28.256Z,15.90
2023-04-08T13:17:54.651Z,14.80
2023-04-08T13:20:25.122Z,17.00
2023-04-08T13:22:52.513Z,16.17
2023-04-08T13:25:18.804Z,13.13
2023-04-08T13:27:45.804Z,13.03
2023-04-08T13:30:12.367Z,15.23
2023-04-08T13:32:38.707Z,15.13
2023-04-08T13:35:05.252Z,13.60
2023-04-08T13:37:31.509Z,16.43
2023-04-08T13:39:57.842Z,16.13
2023-04-08T13:42:24.152Z,15.23
2023-04-08T13:44:50.455Z,14.97
2023-04-08T13:47:17.249Z,17.53
2023-04-08T13:49:43.628Z,16.00
2023-04-08T13:52:09.945Z,14.93
2023-04-08T13:54:36.335Z,11.37
2023-04-08T13:57:02.642Z,14.70
2023-04-08T13:59:28.991Z,13.43
2023-04-08T14:01:55.737Z,12.40
2023-04-08T14:04:22.557Z,13.83
2023-04-08T14:06:51.027Z,12.67
2023-04-08T14:09:17.776Z,13.57
2023-04-08T14:11:44.126Z,13.33
2023-04-08T14:14:10.431Z,13.60
2023-04-08T14:16:36.739Z,14.40
2023-04-08T14:19:04.216Z,13.37
2023-04-08T14:21:31.771Z,12.87
2023-04-08T14:23:58.029Z,11.37
2023-04-08T14:26:24.257Z,12.47
2023-04-08T14:28:50.768Z,11.77
2023-04-08T14:31:17.246Z,13.60
2023-04-08T14:33:43.572Z,13.07
2023-04-08T14:36:10.039Z,11.80
2023-04-08T14:38:36.537Z,12.63
2023-04-08T14:41:02.870Z,12.40
2023-04-08T14:43:29.122Z,11.60
2023-04-08T14:45:55.413Z,15.03
2023-04-08T14:48:21.781Z,14.20
2023-04-08T14:50:48.052Z,12.93
2023-04-08T14:53:14.318Z,13.23
2023-04-08T14:55:40.592Z,11.70
2023-04-08T14:58:06.899Z,14.53
2023-04-08T15:00:33.230Z,12.90
2023-04-08T15:02:59.718Z,15.50
2023-04-08T15:05:26.043Z,18.17
2023-04-08T15:07:52.423Z,13.47
2023-04-08T15:10:18.643Z,13.07
2023-04-08T15:12:44.870Z,15.23
2023-04-08T15:15:11.270Z,12.17
2023-04-08T15:17:37.805Z,12.97
2023-04-08T15:20:04.338Z,13.17
2023-04-08T15:22:30.571Z,12.77
2023-04-08T15:24:56.825Z,12.43
2023-04-08T15:27:23.117Z,11.33
2023-04-08T15:29:49.416Z,12.10
2023-04-08T15:32:15.735Z,11.43
2023-04-08T15:34:42.031Z,12.57
2023-04-08T15:37:08.333Z,11.87
2023-04-08T15:39:34.594Z,12.13
2023-04-08T15:42:01.472Z,12.80
2023-04-08T15:44:30.459Z,12.17
2023-04-08T15:46:56.730Z,11.07
2023-04-08T15:49:22.993Z,11.63
2023-04-08T15:51:50.956Z,13.53
2023-04-08T15:54:17.382Z,12.17
2023-04-08T15:56:45.051Z,10.10
2023-04-08T15:59:11.334Z,11.93
2023-04-08T16:01:37.608Z,13.40
2023-04-08T16:04:04.179Z,12.87
2023-04-08T16:06:30.500Z,15.57
2023-04-08T16:08:56.800Z,12.67
2023-04-08T16:11:23.782Z,11.73
2023-04-08T16:13:50.094Z,13.23
2023-04-08T16:16:16.534Z,12.37
2023-04-08T16:18:45.446Z,11.40
2023-04-08T16:21:13.119Z,11.80
2023-04-08T16:23:39.414Z,12.43
2023-04-08T16:26:07.949Z,10.60
2023-04-08T16:28:34.674Z,12.50
2023-04-08T16:31:00.939Z,13.17
2023-04-08T16:33:30.750Z,11.33
2023-04-08T16:35:57.720Z,12.07
2023-04-08T16:38:24.536Z,11.00
2023-04-08T16:40:51.170Z,11.80
2023-04-08T16:43:17.464Z,11.43
2023-04-08T16:45:43.819Z,11.97
2023-04-08T16:48:10.136Z,12.27
2023-04-08T16:50:39.631Z,12.60
2023-04-08T16:53:06.013Z,11.63
2023-04-08T16:55:33.692Z,14.23
2023-04-08T16:58:01.149Z,12.60
2023-04-08T17:00:27.717Z,14.70
2023-04-08T17:02:56.861Z,16.80
2023-04-08T17:05:23.271Z,19.33
2023-04-08T17:07:49.540Z,17.27
2023-04-08T17:10:16.034Z,16.90
2023-04-08T17:12:42.271Z,19.67
2023-04-08T17:15:08.956Z,17.53
2023-04-08T17:17:35.349Z,18.57
2023-04-08T17:20:01.723Z,19.40
2023-04-08T17:22:27.960Z,19.30
2023-04-08T17:24:54.201Z,19.93
2023-04-08T17:27:21.159Z,19.23
2023-04-08T17:29:47.436Z,19.83
2023-04-08T17:32:13.679Z,20.87
2023-04-08T17:34:40.985Z,22.73
2023-04-08T17:37:07.675Z,21.70
2023-04-08T17:39:33.911Z,23.17
2023-04-08T17:42:02.034Z,22.10
2023-04-08T17:44:29.908Z,27.03
2023-04-08T17:46:56.446Z,21.77
2023-04-08T17:49:22.912Z,25.47
2023-04-08T17:51:49.420Z,23.33
2023-04-08T17:54:17.107Z,23.50
2023-04-08T17:56:44.964Z,25.00
2023-04-08T17:59:12.145Z,24.77
2023-04-08T18:01:38.698Z,26.57
2023-04-08T18:04:08.647Z,25.07
2023-04-08T18:06:35.092Z,26.07
2023-04-08T18:09:03.604Z,25.90
2023-04-08T18:11:29.987Z,29.83
2023-04-08T18:13:56.232Z,25.83
2023-04-08T18:16:22.980Z,27.87
2023-04-08T18:18:49.290Z,25.93
2023-04-08T18:21:17.926Z,28.90
2023-04-08T18:23:46.965Z,28.47
2023-04-08T18:26:13.272Z,27.67
2023-04-08T18:28:39.644Z,30.73
2023-04-08T18:31:06.237Z,28.63
2023-04-08T18:33:32.567Z,29.37
2023-04-08T18:36:05.736Z,30.30
2023-04-08T18:38:32.003Z,28.93
2023-04-08T18:40:58.250Z,29.27
2023-04-08T18:43:24.546Z,29.33
2023-04-08T18:45:50.886Z,27.60
2023-04-08T18:48:17.177Z,28.37
2023-04-08T18:50:44.199Z,33.73
2023-04-08T18:53:10.488Z,27.37
2023-04-08T18:55:38.682Z,27.97
2023-04-08T18:58:05.123Z,26.50
2023-04-08T19:00:31.550Z,27.63
2023-04-08T19:02:58.129Z,25.47
2023-04-08T19:05:24.710Z,27.87
2023-04-08T19:07:50.964Z,27.03
2023-04-08T19:10:17.210Z,27.73
2023-04-08T19:12:43.454Z,26.23
2023-04-08T19:15:09.849Z,25.53
2023-04-08T19:17:36.094Z,25.40
2023-04-08T19:20:03.272Z,25.37
2023-04-08T19:22:29.564Z,24.63
2023-04-08T19:24:55.951Z,24.63
2023-04-08T19:27:22.203Z,26.30
2023-04-08T19:29:48.535Z,25.30
2023-04-08T19:32:15.492Z,24.67
2023-04-08T19:34:42.334Z,22.67
2023-04-08T19:37:08.657Z,27.20
2023-04-08T19:39:35.452Z,26.07
2023-04-08T19:42:01.906Z,25.20
2023-04-08T19:44:28.245Z,24.43
2023-04-08T19:46:57.346Z,25.23
2023-04-08T19:49:24.157Z,24.27
2023-04-08T19:51:50.949Z,24.53
2023-04-08T19:54:17.490Z,24.90
2023-04-08T19:56:44.095Z,24.90
2023-04-08T19:59:13.539Z,22.97
2023-04-08T20:01:40.581Z,22.90
2023-04-08T20:04:07.013Z,26.10
2023-04-08T20:06:34.732Z,26.87
2023-04-08T20:09:05.308Z,25.47
2023-04-08T20:11:32.262Z,25.83
2023-04-08T20:13:58.644Z,27.20
2023-04-08T20:16:24.938Z,27.03
2023-04-08T20:18:51.516Z,27.40
2023-04-08T20:21:18.131Z,28.13
2023-04-08T20:23:44.841Z,26.17
2023-04-08T20:26:12.284Z,27.30
2023-04-08T20:28:45.315Z,26.90
2023-04-08T20:31:12.019Z,29.30
2023-04-08T20:33:43.498Z,30.03
2023-04-08T20:36:13.310Z,26.77
2023-04-08T20:38:39.909Z,31.40
2023-04-08T20:41:06.547Z,29.93
2023-04-08T20:43:32.844Z,36.03
2023-04-08T20:45:59.449Z,29.20
2023-04-08T20:48:25.798Z,31.07
2023-04-08T20:50:52.062Z,30.87
2023-04-08T20:53:19.582Z,31.90
2023-04-08T20:55:46.012Z,31.23
2023-04-08T20:58:12.273Z,32.00
2023-04-08T21:00:38.646Z,34.00
2023-04-08T21:03:04.985Z,34.07
2023-04-08T21:05:31.524Z,33.20
2023-04-08T21:07:57.818Z,32.43
2023-04-08T21:10:24.116Z,34.30
2023-04-08T21:12:50.400Z,32.13
2023-04-08T21:15:16.728Z,33.20
2023-04-08T21:17:43.041Z,31.73
2023-04-08T21:20:09.732Z,33.13
2023-04-08T21:22:36.013Z,34.43
2023-04-08T21:25:02.299Z,34.03
2023-04-08T21:27:28.663Z,30.17
2023-04-08T21:29:55.198Z,34.00
2023-04-08T21:32:21.458Z,30.57
2023-04-08T21:34:47.762Z,32.03
2023-04-08T21:37:14.071Z,32.07
2023-04-08T21:39:40.387Z,34.30
2023-04-08T21:42:06.839Z,31.43
2023-04-08T21:44:33.321Z,33.23
2023-04-08T21:47:01.691Z,34.77
2023-04-08T21:49:29.799Z,34.07
2023-04-08T21:51:56.207Z,35.90
2023-04-08T21:54:22.503Z,37.30
2023-04-08T21:56:48.769Z,38.30
2023-04-08T21:59:15.020Z,35.60
2023-04-08T22:01:41.434Z,35.70
2023-04-08T22:04:07.828Z,36.57
2023-04-08T22:06:34.232Z,37.30
2023-04-08T22:09:00.583Z,39.57
2023-04-08T22:11:27.017Z,34.50
2023-04-08T22:13:53.707Z,36.27
2023-04-08T22:16:19.987Z,38.60
2023-04-08T22:18:46.663Z,37.17
2023-04-08T22:21:12.931Z,35.43
2023-04-08T22:23:39.266Z,37.67
2023-04-08T22:26:05.580Z,34.43
2023-04-08T22:28:34.149Z,40.60
2023-04-08T22:31:01.183Z,36.77
2023-04-08T22:33:30.403Z,38.83
2023-04-08T22:35:57.454Z,36.07
2023-04-08T22:38:23.873Z,39.83
2023-04-08T22:40:50.379Z,39.43
2023-04-08T22:43:16.613Z,38.83
2023-04-08T22:45:42.897Z,38.70
2023-04-08T22:48:09.163Z,36.53
2023-04-08T22:50:35.731Z,39.73
2023-04-08T22:53:02.027Z,38.83
2023-04-08T22:55:28.266Z,37.30
2023-04-08T22:57:54.516Z,35.20
2023-04-08T23:00:21.169Z,37.30
2023-04-08T23:02:47.710Z,37.47
2023-04-08T23:05:14.126Z,35.40
2023-04-08T23:07:40.364Z,37.73
2023-04-08T23:10:07.102Z,39.50
2023-04-08T23:12:33.423Z,33.87
2023-04-08T23:14:59.732Z,33.80
2023-04-08T23:17:26.060Z,39.00
2023-04-08T23:19:52.365Z,38.77
2023-04-08T23:22:18.616Z,35.60
2023-04-08T23:24:44.869Z,36.03
2023-04-08T23:27:13.392Z,36.37
2023-04-08T23:29:39.689Z,33.73
2023-04-08T23:32:05.997Z,36.47
2023-04-08T23:34:35.205Z,39.37
2023-04-08T23:37:01.468Z,35.73
2023-04-08T23:39:27.740Z,36.77
2023-04-08T23:41:54.005Z,37.17
2023-04-08T23:44:21.384Z,35.17
2023-04-08T23:46:47.690Z,38.30
2023-04-08T23:49:13.963Z,36.20
2023-04-08T23:51:40.317Z,36.87
2023-04-08T23:54:06.607Z,42.03
2023-04-08T23:56:32.958Z,36.20
2023-04-08T23:58:59.359Z,35.53
